KMWH Airport (Grant Co Intl) Information

FAA: MWH - ICAO: KMWH

KMWH Airport Location

State Washington
County Grant
City Moses Lake
KMWH Airport is 5 miles northwest of Moses Lake, WA.
Latitude 47-12-30.9000N
Longitude 119-19-08.9000W
Elevation 1,188ft

KMWH Airport METARs

METAR KMWH 181352Z AUTO 35005KT 2 1/2SM BR OVC005 M02/M03 A3003 RMK AO2 SLP183 I1000 T10171028
Altimeter 30.03"
Temperature -1.7°C (28.9°F)
Wind 350° at 5KT
Clouds overcast at 500ft
Visibility 2.5mi
Time observed: 2022-01-18T13:52:00Z

KMWH Airport Details

Status Operational
Activation N/A
Ownership Public
Usage Public
Chart SEATTLE
ATC on-site Yes
Beacon schedule sunset-sunrise
Beacon color clear green

KMWH Airport Contacts

Owner PORT OF MOSES LAKE
Owner address 7810 ANDREWS STREET NE, MOSES LAKE, WA 98837
Owner phone 509-762-5363
Manager RICK HOFFMAN
Manager address PO BOX 907, LOPEZ ISLAND, WA 98261
Manager phone 360-468-4116

KMWH Airport (Grant Co Intl) Radio Frequencies

KMWH (Airport) Radio Frequencies

UNICOM 122.95
Common traffic advisory frequency (CTAF) 118.25